sensor_id;sensor_type;location;lat;lon;timestamp;P1;durP1;ratioP1;P2;durP2;ratioP2
55368;SDS011;41247;49.736;8.752;2022-07-29T00:03:04;5.57;;;1.80;;
55368;SDS011;41247;49.736;8.752;2022-07-29T00:06:45;3.17;;;1.63;;
55368;SDS011;41247;49.736;8.752;2022-07-29T00:10:25;5.43;;;1.83;;
55368;SDS011;41247;49.736;8.752;2022-07-29T00:14:06;4.03;;;1.50;;
55368;SDS011;41247;49.736;8.752;2022-07-29T00:17:47;9.68;;;1.92;;
55368;SDS011;41247;49.736;8.752;2022-07-29T00:21:30;4.00;;;2.03;;
55368;SDS011;41247;49.736;8.752;2022-07-29T00:25:11;4.55;;;1.65;;
55368;SDS011;41247;49.736;8.752;2022-07-29T00:28:52;3.75;;;1.65;;
55368;SDS011;41247;49.736;8.752;2022-07-29T00:32:33;3.55;;;1.55;;
55368;SDS011;41247;49.736;8.752;2022-07-29T00:36:14;3.92;;;1.80;;
55368;SDS011;41247;49.736;8.752;2022-07-29T00:39:54;4.53;;;1.88;;
55368;SDS011;41247;49.736;8.752;2022-07-29T00:43:35;5.80;;;1.60;;
55368;SDS011;41247;49.736;8.752;2022-07-29T00:47:16;2.63;;;1.58;;
55368;SDS011;41247;49.736;8.752;2022-07-29T00:50:57;3.13;;;1.90;;
55368;SDS011;41247;49.736;8.752;2022-07-29T00:54:39;4.22;;;1.80;;
55368;SDS011;41247;49.736;8.752;2022-07-29T00:58:20;3.97;;;1.83;;
55368;SDS011;41247;49.736;8.752;2022-07-29T01:02:02;3.00;;;1.80;;
55368;SDS011;41247;49.736;8.752;2022-07-29T01:05:44;6.45;;;2.05;;
55368;SDS011;41247;49.736;8.752;2022-07-29T01:09:26;3.10;;;2.05;;
55368;SDS011;41247;49.736;8.752;2022-07-29T01:13:07;3.42;;;1.90;;
55368;SDS011;41247;49.736;8.752;2022-07-29T01:16:54;5.65;;;2.38;;
55368;SDS011;41247;49.736;8.752;2022-07-29T01:33:07;3.40;;;1.90;;
55368;SDS011;41247;49.736;8.752;2022-07-29T01:37:42;2.88;;;1.80;;
55368;SDS011;41247;49.736;8.752;2022-07-29T01:41:06;5.05;;;2.22;;
55368;SDS011;41247;49.736;8.752;2022-07-29T01:44:57;7.05;;;2.05;;
55368;SDS011;41247;49.736;8.752;2022-07-29T01:49:06;3.92;;;1.80;;
55368;SDS011;41247;49.736;8.752;2022-07-29T01:52:54;7.30;;;2.47;;
55368;SDS011;41247;49.736;8.752;2022-07-29T01:56:39;4.05;;;2.17;;
55368;SDS011;41247;49.736;8.752;2022-07-29T02:00:22;9.80;;;2.50;;
55368;SDS011;41247;49.736;8.752;2022-07-29T02:04:06;2.78;;;1.90;;
55368;SDS011;41247;49.736;8.752;2022-07-29T02:07:50;4.25;;;1.85;;
55368;SDS011;41247;49.736;8.752;2022-07-29T02:11:32;6.65;;;1.83;;
55368;SDS011;41247;49.736;8.752;2022-07-29T02:15:15;2.47;;;1.80;;
55368;SDS011;41247;49.736;8.752;2022-07-29T02:18:59;3.60;;;1.80;;
55368;SDS011;41247;49.736;8.752;2022-07-29T02:22:42;6.13;;;2.20;;
55368;SDS011;41247;49.736;8.752;2022-07-29T02:26:24;4.85;;;1.98;;
55368;SDS011;41247;49.736;8.752;2022-07-29T02:30:07;8.73;;;1.83;;
55368;SDS011;41247;49.736;8.752;2022-07-29T02:33:49;5.30;;;1.80;;
55368;SDS011;41247;49.736;8.752;2022-07-29T02:37:31;10.18;;;2.10;;
55368;SDS011;41247;49.736;8.752;2022-07-29T02:41:35;6.60;;;2.17;;
55368;SDS011;41247;49.736;8.752;2022-07-29T02:45:20;4.32;;;1.70;;
55368;SDS011;41247;49.736;8.752;2022-07-29T02:49:04;5.13;;;1.88;;
55368;SDS011;41247;49.736;8.752;2022-07-29T02:53:16;5.30;;;2.13;;
55368;SDS011;41247;49.736;8.752;2022-07-29T02:57:00;3.63;;;2.10;;
55368;SDS011;41247;49.736;8.752;2022-07-29T03:00:49;7.07;;;2.00;;
55368;SDS011;41247;49.736;8.752;2022-07-29T03:04:32;5.82;;;2.05;;
55368;SDS011;41247;49.736;8.752;2022-07-29T03:08:14;3.80;;;2.22;;
55368;SDS011;41247;49.736;8.752;2022-07-29T03:11:55;4.18;;;2.03;;
55368;SDS011;41247;49.736;8.752;2022-07-29T03:15:37;8.90;;;2.40;;
55368;SDS011;41247;49.736;8.752;2022-07-29T03:19:18;10.18;;;2.10;;
55368;SDS011;41247;49.736;8.752;2022-07-29T03:22:59;6.25;;;2.70;;
55368;SDS011;41247;49.736;8.752;2022-07-29T03:26:40;6.10;;;2.00;;
55368;SDS011;41247;49.736;8.752;2022-07-29T03:30:21;6.75;;;2.50;;
55368;SDS011;41247;49.736;8.752;2022-07-29T03:34:02;7.00;;;2.50;;
55368;SDS011;41247;49.736;8.752;2022-07-29T03:37:43;6.93;;;2.50;;
55368;SDS011;41247;49.736;8.752;2022-07-29T03:41:24;9.20;;;2.75;;
55368;SDS011;41247;49.736;8.752;2022-07-29T03:45:06;6.88;;;2.92;;
55368;SDS011;41247;49.736;8.752;2022-07-29T03:48:50;4.70;;;2.60;;
55368;SDS011;41247;49.736;8.752;2022-07-29T03:52:35;6.35;;;2.58;;
55368;SDS011;41247;49.736;8.752;2022-07-29T03:56:16;6.55;;;2.88;;
55368;SDS011;41247;49.736;8.752;2022-07-29T04:00:01;6.35;;;3.13;;
55368;SDS011;41247;49.736;8.752;2022-07-29T04:03:44;7.37;;;2.37;;
55368;SDS011;41247;49.736;8.752;2022-07-29T04:07:25;8.23;;;2.80;;
55368;SDS011;41247;49.736;8.752;2022-07-29T04:11:05;5.20;;;2.53;;
55368;SDS011;41247;49.736;8.752;2022-07-29T04:14:46;8.63;;;2.67;;
55368;SDS011;41247;49.736;8.752;2022-07-29T04:18:27;8.23;;;2.80;;
55368;SDS011;41247;49.736;8.752;2022-07-29T04:22:07;8.50;;;2.80;;
55368;SDS011;41247;49.736;8.752;2022-07-29T04:25:48;5.82;;;2.90;;
55368;SDS011;41247;49.736;8.752;2022-07-29T04:29:29;6.18;;;2.85;;
55368;SDS011;41247;49.736;8.752;2022-07-29T04:33:09;6.47;;;2.83;;
55368;SDS011;41247;49.736;8.752;2022-07-29T04:36:50;7.30;;;2.78;;
55368;SDS011;41247;49.736;8.752;2022-07-29T04:40:31;5.88;;;2.53;;
55368;SDS011;41247;49.736;8.752;2022-07-29T04:44:12;9.75;;;3.42;;
55368;SDS011;41247;49.736;8.752;2022-07-29T04:47:52;6.43;;;2.67;;
55368;SDS011;41247;49.736;8.752;2022-07-29T04:51:34;6.57;;;2.85;;
55368;SDS011;41247;49.736;8.752;2022-07-29T04:55:14;5.50;;;2.50;;
55368;SDS011;41247;49.736;8.752;2022-07-29T04:58:55;5.32;;;2.72;;
55368;SDS011;41247;49.736;8.752;2022-07-29T05:02:36;5.32;;;2.60;;
55368;SDS011;41247;49.736;8.752;2022-07-29T05:06:16;9.90;;;3.20;;
55368;SDS011;41247;49.736;8.752;2022-07-29T05:09:57;6.88;;;2.95;;
55368;SDS011;41247;49.736;8.752;2022-07-29T05:13:37;6.35;;;2.88;;
55368;SDS011;41247;49.736;8.752;2022-07-29T05:17:18;8.30;;;3.10;;
55368;SDS011;41247;49.736;8.752;2022-07-29T05:20:59;9.13;;;3.13;;
55368;SDS011;41247;49.736;8.752;2022-07-29T05:24:40;5.28;;;2.90;;
55368;SDS011;41247;49.736;8.752;2022-07-29T05:28:20;8.85;;;2.70;;
55368;SDS011;41247;49.736;8.752;2022-07-29T05:32:01;9.85;;;3.00;;
55368;SDS011;41247;49.736;8.752;2022-07-29T05:35:42;5.30;;;2.92;;
55368;SDS011;41247;49.736;8.752;2022-07-29T05:39:24;7.38;;;3.17;;
55368;SDS011;41247;49.736;8.752;2022-07-29T05:43:05;4.72;;;2.72;;
55368;SDS011;41247;49.736;8.752;2022-07-29T05:46:45;6.05;;;2.50;;
55368;SDS011;41247;49.736;8.752;2022-07-29T05:50:27;9.32;;;3.75;;
55368;SDS011;41247;49.736;8.752;2022-07-29T05:54:07;7.60;;;3.20;;
55368;SDS011;41247;49.736;8.752;2022-07-29T05:57:48;5.75;;;2.80;;
55368;SDS011;41247;49.736;8.752;2022-07-29T06:01:28;5.72;;;2.75;;
55368;SDS011;41247;49.736;8.752;2022-07-29T06:05:09;3.88;;;2.58;;
55368;SDS011;41247;49.736;8.752;2022-07-29T06:08:50;7.10;;;2.92;;
55368;SDS011;41247;49.736;8.752;2022-07-29T06:12:30;4.65;;;2.80;;
55368;SDS011;41247;49.736;8.752;2022-07-29T06:16:11;7.22;;;2.97;;
55368;SDS011;41247;49.736;8.752;2022-07-29T06:19:51;7.22;;;2.65;;
55368;SDS011;41247;49.736;8.752;2022-07-29T06:23:32;6.80;;;2.85;;
55368;SDS011;41247;49.736;8.752;2022-07-29T06:27:13;6.53;;;2.70;;
55368;SDS011;41247;49.736;8.752;2022-07-29T06:30:53;9.60;;;2.45;;
55368;SDS011;41247;49.736;8.752;2022-07-29T06:34:34;6.07;;;2.30;;
55368;SDS011;41247;49.736;8.752;2022-07-29T06:38:15;6.53;;;2.40;;
55368;SDS011;41247;49.736;8.752;2022-07-29T06:41:56;5.07;;;2.20;;
55368;SDS011;41247;49.736;8.752;2022-07-29T06:45:37;7.78;;;2.58;;
55368;SDS011;41247;49.736;8.752;2022-07-29T06:49:18;6.85;;;2.45;;
55368;SDS011;41247;49.736;8.752;2022-07-29T06:52:58;10.38;;;2.55;;
55368;SDS011;41247;49.736;8.752;2022-07-29T06:56:39;5.70;;;2.42;;
55368;SDS011;41247;49.736;8.752;2022-07-29T07:00:19;5.30;;;2.40;;
55368;SDS011;41247;49.736;8.752;2022-07-29T07:04:00;5.72;;;2.17;;
55368;SDS011;41247;49.736;8.752;2022-07-29T07:07:41;3.22;;;2.25;;
55368;SDS011;41247;49.736;8.752;2022-07-29T07:11:21;6.85;;;2.35;;
55368;SDS011;41247;49.736;8.752;2022-07-29T07:15:02;10.00;;;5.20;;
55368;SDS011;41247;49.736;8.752;2022-07-29T07:18:43;5.68;;;3.80;;
55368;SDS011;41247;49.736;8.752;2022-07-29T07:22:24;9.65;;;3.42;;
55368;SDS011;41247;49.736;8.752;2022-07-29T07:26:04;9.80;;;3.60;;
55368;SDS011;41247;49.736;8.752;2022-07-29T07:29:45;3.58;;;2.33;;
55368;SDS011;41247;49.736;8.752;2022-07-29T07:33:25;6.25;;;2.72;;
55368;SDS011;41247;49.736;8.752;2022-07-29T07:37:06;6.20;;;2.40;;
55368;SDS011;41247;49.736;8.752;2022-07-29T07:40:47;4.13;;;2.30;;
55368;SDS011;41247;49.736;8.752;2022-07-29T07:44:27;5.93;;;2.63;;
55368;SDS011;41247;49.736;8.752;2022-07-29T07:48:08;3.13;;;2.42;;
55368;SDS011;41247;49.736;8.752;2022-07-29T07:51:49;5.45;;;2.30;;
55368;SDS011;41247;49.736;8.752;2022-07-29T07:55:29;5.43;;;2.25;;
55368;SDS011;41247;49.736;8.752;2022-07-29T07:59:10;5.13;;;3.03;;
55368;SDS011;41247;49.736;8.752;2022-07-29T08:02:50;4.25;;;2.28;;
55368;SDS011;41247;49.736;8.752;2022-07-29T08:06:31;9.57;;;2.63;;
55368;SDS011;41247;49.736;8.752;2022-07-29T08:10:13;4.18;;;2.17;;
55368;SDS011;41247;49.736;8.752;2022-07-29T08:17:35;4.90;;;2.53;;
55368;SDS011;41247;49.736;8.752;2022-07-29T08:21:16;6.05;;;2.30;;
55368;SDS011;41247;49.736;8.752;2022-07-29T08:24:57;5.80;;;2.78;;
55368;SDS011;41247;49.736;8.752;2022-07-29T08:28:42;9.27;;;3.20;;
55368;SDS011;41247;49.736;8.752;2022-07-29T08:32:24;8.38;;;2.92;;
55368;SDS011;41247;49.736;8.752;2022-07-29T08:36:05;4.63;;;2.75;;
55368;SDS011;41247;49.736;8.752;2022-07-29T08:39:46;9.15;;;2.90;;
55368;SDS011;41247;49.736;8.752;2022-07-29T08:43:27;4.03;;;3.00;;
55368;SDS011;41247;49.736;8.752;2022-07-29T08:47:08;4.95;;;2.90;;
55368;SDS011;41247;49.736;8.752;2022-07-29T08:50:52;3.20;;;2.75;;
55368;SDS011;41247;49.736;8.752;2022-07-29T08:54:35;4.55;;;2.60;;
55368;SDS011;41247;49.736;8.752;2022-07-29T08:58:17;3.15;;;2.42;;
55368;SDS011;41247;49.736;8.752;2022-07-29T09:01:58;4.78;;;2.47;;
55368;SDS011;41247;49.736;8.752;2022-07-29T09:05:42;5.22;;;2.70;;
55368;SDS011;41247;49.736;8.752;2022-07-29T09:09:24;4.30;;;2.30;;
55368;SDS011;41247;49.736;8.752;2022-07-29T09:13:06;4.55;;;2.75;;
55368;SDS011;41247;49.736;8.752;2022-07-29T09:16:51;5.35;;;2.55;;
55368;SDS011;41247;49.736;8.752;2022-07-29T09:20:36;4.32;;;2.40;;
55368;SDS011;41247;49.736;8.752;2022-07-29T09:24:16;4.45;;;2.90;;
55368;SDS011;41247;49.736;8.752;2022-07-29T09:28:05;5.97;;;2.88;;
55368;SDS011;41247;49.736;8.752;2022-07-29T09:31:56;3.95;;;2.40;;
55368;SDS011;41247;49.736;8.752;2022-07-29T09:35:37;6.57;;;2.80;;
55368;SDS011;41247;49.736;8.752;2022-07-29T09:39:31;6.60;;;2.72;;
55368;SDS011;41247;49.736;8.752;2022-07-29T09:43:18;3.60;;;2.50;;
55368;SDS011;41247;49.736;8.752;2022-07-29T09:46:59;5.65;;;2.60;;
55368;SDS011;41247;49.736;8.752;2022-07-29T09:50:43;4.38;;;2.40;;
55368;SDS011;41247;49.736;8.752;2022-07-29T09:54:25;3.50;;;2.92;;
55368;SDS011;41247;49.736;8.752;2022-07-29T09:58:20;6.18;;;2.90;;
55368;SDS011;41247;49.736;8.752;2022-07-29T10:02:01;3.90;;;2.85;;
55368;SDS011;41247;49.736;8.752;2022-07-29T10:10:05;4.75;;;2.90;;
55368;SDS011;41247;49.736;8.752;2022-07-29T10:13:47;2.78;;;2.55;;
55368;SDS011;41247;49.736;8.752;2022-07-29T10:17:28;5.05;;;2.72;;
55368;SDS011;41247;49.736;8.752;2022-07-29T10:21:11;5.38;;;2.90;;
55368;SDS011;41247;49.736;8.752;2022-07-29T10:24:52;4.72;;;2.83;;
55368;SDS011;41247;49.736;8.752;2022-07-29T10:28:34;4.55;;;2.85;;
55368;SDS011;41247;49.736;8.752;2022-07-29T10:32:19;4.25;;;2.88;;
55368;SDS011;41247;49.736;8.752;2022-07-29T10:36:46;3.83;;;2.60;;
55368;SDS011;41247;49.736;8.752;2022-07-29T10:40:50;6.75;;;2.90;;
55368;SDS011;41247;49.736;8.752;2022-07-29T10:44:52;2.75;;;2.35;;
55368;SDS011;41247;49.736;8.752;2022-07-29T10:48:34;3.72;;;2.88;;
55368;SDS011;41247;49.736;8.752;2022-07-29T10:52:15;4.20;;;2.75;;
55368;SDS011;41247;49.736;8.752;2022-07-29T10:55:55;5.30;;;2.92;;
55368;SDS011;41247;49.736;8.752;2022-07-29T10:59:36;5.63;;;3.17;;
55368;SDS011;41247;49.736;8.752;2022-07-29T11:07:22;4.75;;;2.72;;
55368;SDS011;41247;49.736;8.752;2022-07-29T11:14:59;6.72;;;3.10;;
55368;SDS011;41247;49.736;8.752;2022-07-29T11:22:51;4.75;;;3.30;;
55368;SDS011;41247;49.736;8.752;2022-07-29T11:26:32;9.35;;;3.25;;
55368;SDS011;41247;49.736;8.752;2022-07-29T11:30:13;4.90;;;3.15;;
55368;SDS011;41247;49.736;8.752;2022-07-29T11:33:54;7.30;;;3.80;;
55368;SDS011;41247;49.736;8.752;2022-07-29T11:37:34;8.10;;;3.38;;
55368;SDS011;41247;49.736;8.752;2022-07-29T11:41:22;4.13;;;3.30;;
55368;SDS011;41247;49.736;8.752;2022-07-29T11:48:52;4.47;;;3.33;;
55368;SDS011;41247;49.736;8.752;2022-07-29T11:52:37;6.03;;;3.00;;
55368;SDS011;41247;49.736;8.752;2022-07-29T12:00:11;9.25;;;2.90;;
55368;SDS011;41247;49.736;8.752;2022-07-29T12:04:01;6.53;;;2.70;;
55368;SDS011;41247;49.736;8.752;2022-07-29T12:07:47;5.55;;;3.13;;
55368;SDS011;41247;49.736;8.752;2022-07-29T12:11:28;6.47;;;2.75;;
55368;SDS011;41247;49.736;8.752;2022-07-29T12:15:12;4.53;;;2.80;;
55368;SDS011;41247;49.736;8.752;2022-07-29T12:18:56;10.85;;;2.75;;
55368;SDS011;41247;49.736;8.752;2022-07-29T12:22:41;7.43;;;2.70;;
55368;SDS011;41247;49.736;8.752;2022-07-29T12:26:22;5.10;;;2.90;;
55368;SDS011;41247;49.736;8.752;2022-07-29T12:30:03;4.40;;;2.50;;
55368;SDS011;41247;49.736;8.752;2022-07-29T12:33:52;6.00;;;2.97;;
55368;SDS011;41247;49.736;8.752;2022-07-29T12:37:33;8.43;;;3.10;;
55368;SDS011;41247;49.736;8.752;2022-07-29T12:41:15;8.50;;;3.13;;
55368;SDS011;41247;49.736;8.752;2022-07-29T12:44:56;3.63;;;2.97;;
55368;SDS011;41247;49.736;8.752;2022-07-29T12:48:37;7.72;;;2.92;;
55368;SDS011;41247;49.736;8.752;2022-07-29T12:52:31;6.25;;;3.10;;
55368;SDS011;41247;49.736;8.752;2022-07-29T12:56:16;9.77;;;2.80;;
55368;SDS011;41247;49.736;8.752;2022-07-29T13:00:07;3.78;;;3.10;;
55368;SDS011;41247;49.736;8.752;2022-07-29T13:03:54;3.90;;;2.70;;
55368;SDS011;41247;49.736;8.752;2022-07-29T13:07:37;6.18;;;2.80;;
55368;SDS011;41247;49.736;8.752;2022-07-29T13:11:37;7.25;;;2.67;;
55368;SDS011;41247;49.736;8.752;2022-07-29T13:15:18;8.80;;;2.70;;
55368;SDS011;41247;49.736;8.752;2022-07-29T13:19:03;5.32;;;2.80;;
55368;SDS011;41247;49.736;8.752;2022-07-29T13:26:32;4.82;;;2.85;;
55368;SDS011;41247;49.736;8.752;2022-07-29T13:30:13;5.13;;;2.60;;
55368;SDS011;41247;49.736;8.752;2022-07-29T13:33:53;7.70;;;2.50;;
55368;SDS011;41247;49.736;8.752;2022-07-29T13:37:34;7.32;;;2.50;;
55368;SDS011;41247;49.736;8.752;2022-07-29T13:41:16;5.03;;;2.38;;
55368;SDS011;41247;49.736;8.752;2022-07-29T13:44:57;4.82;;;2.47;;
55368;SDS011;41247;49.736;8.752;2022-07-29T13:48:38;4.72;;;2.60;;
55368;SDS011;41247;49.736;8.752;2022-07-29T13:52:19;2.88;;;2.10;;
55368;SDS011;41247;49.736;8.752;2022-07-29T13:55:59;4.35;;;2.15;;
55368;SDS011;41247;49.736;8.752;2022-07-29T13:59:41;5.30;;;2.10;;
55368;SDS011;41247;49.736;8.752;2022-07-29T14:03:22;3.90;;;2.03;;
55368;SDS011;41247;49.736;8.752;2022-07-29T14:07:03;6.50;;;2.00;;
55368;SDS011;41247;49.736;8.752;2022-07-29T14:10:43;4.10;;;2.25;;
55368;SDS011;41247;49.736;8.752;2022-07-29T14:14:24;3.65;;;2.10;;
55368;SDS011;41247;49.736;8.752;2022-07-29T14:18:05;6.03;;;2.40;;
55368;SDS011;41247;49.736;8.752;2022-07-29T14:21:45;7.93;;;2.33;;
55368;SDS011;41247;49.736;8.752;2022-07-29T14:25:26;5.28;;;2.25;;
55368;SDS011;41247;49.736;8.752;2022-07-29T14:29:06;7.38;;;2.17;;
55368;SDS011;41247;49.736;8.752;2022-07-29T14:32:47;6.05;;;2.58;;
55368;SDS011;41247;49.736;8.752;2022-07-29T14:36:28;10.82;;;2.50;;
55368;SDS011;41247;49.736;8.752;2022-07-29T14:40:09;8.13;;;2.10;;
55368;SDS011;41247;49.736;8.752;2022-07-29T14:43:50;8.70;;;2.70;;
55368;SDS011;41247;49.736;8.752;2022-07-29T14:47:31;5.78;;;2.67;;
55368;SDS011;41247;49.736;8.752;2022-07-29T14:51:12;7.88;;;2.70;;
55368;SDS011;41247;49.736;8.752;2022-07-29T14:54:52;6.25;;;2.40;;
55368;SDS011;41247;49.736;8.752;2022-07-29T14:58:33;3.65;;;2.55;;
55368;SDS011;41247;49.736;8.752;2022-07-29T15:02:14;11.45;;;3.20;;
55368;SDS011;41247;49.736;8.752;2022-07-29T15:05:54;10.05;;;2.55;;
55368;SDS011;41247;49.736;8.752;2022-07-29T15:09:35;7.97;;;2.58;;
55368;SDS011;41247;49.736;8.752;2022-07-29T15:13:15;6.75;;;2.60;;
55368;SDS011;41247;49.736;8.752;2022-07-29T15:16:56;7.88;;;2.60;;
55368;SDS011;41247;49.736;8.752;2022-07-29T15:20:37;4.55;;;2.40;;
55368;SDS011;41247;49.736;8.752;2022-07-29T15:24:18;5.82;;;2.40;;
55368;SDS011;41247;49.736;8.752;2022-07-29T15:27:59;6.72;;;2.40;;
55368;SDS011;41247;49.736;8.752;2022-07-29T15:31:39;4.45;;;2.30;;
55368;SDS011;41247;49.736;8.752;2022-07-29T15:35:20;3.58;;;1.98;;
55368;SDS011;41247;49.736;8.752;2022-07-29T15:39:01;4.18;;;2.28;;
55368;SDS011;41247;49.736;8.752;2022-07-29T15:42:42;2.75;;;1.95;;
55368;SDS011;41247;49.736;8.752;2022-07-29T15:46:22;7.65;;;2.55;;
55368;SDS011;41247;49.736;8.752;2022-07-29T15:50:04;5.97;;;2.17;;
55368;SDS011;41247;49.736;8.752;2022-07-29T15:53:45;5.93;;;2.92;;
55368;SDS011;41247;49.736;8.752;2022-07-29T15:57:26;3.83;;;2.80;;
55368;SDS011;41247;49.736;8.752;2022-07-29T16:01:06;5.18;;;2.53;;
55368;SDS011;41247;49.736;8.752;2022-07-29T16:04:47;3.97;;;3.03;;
55368;SDS011;41247;49.736;8.752;2022-07-29T16:08:28;3.78;;;2.78;;
55368;SDS011;41247;49.736;8.752;2022-07-29T16:12:09;11.23;;;2.80;;
55368;SDS011;41247;49.736;8.752;2022-07-29T16:15:49;6.70;;;2.90;;
55368;SDS011;41247;49.736;8.752;2022-07-29T16:19:30;3.22;;;2.67;;
55368;SDS011;41247;49.736;8.752;2022-07-29T16:23:10;5.95;;;2.75;;
55368;SDS011;41247;49.736;8.752;2022-07-29T16:26:51;4.00;;;2.72;;
55368;SDS011;41247;49.736;8.752;2022-07-29T16:30:32;3.83;;;2.70;;
55368;SDS011;41247;49.736;8.752;2022-07-29T16:34:13;5.45;;;3.05;;
55368;SDS011;41247;49.736;8.752;2022-07-29T16:37:54;3.78;;;3.00;;
55368;SDS011;41247;49.736;8.752;2022-07-29T16:41:35;2.88;;;2.55;;
55368;SDS011;41247;49.736;8.752;2022-07-29T16:45:16;3.53;;;3.00;;
55368;SDS011;41247;49.736;8.752;2022-07-29T16:48:56;5.30;;;2.83;;
55368;SDS011;41247;49.736;8.752;2022-07-29T16:52:37;3.13;;;2.72;;
55368;SDS011;41247;49.736;8.752;2022-07-29T16:56:18;3.95;;;2.97;;
55368;SDS011;41247;49.736;8.752;2022-07-29T16:59:58;4.00;;;2.80;;
55368;SDS011;41247;49.736;8.752;2022-07-29T17:03:39;3.40;;;2.63;;
55368;SDS011;41247;49.736;8.752;2022-07-29T17:07:19;3.88;;;2.50;;
55368;SDS011;41247;49.736;8.752;2022-07-29T17:11:00;4.55;;;2.90;;
55368;SDS011;41247;49.736;8.752;2022-07-29T17:14:40;3.03;;;2.40;;
55368;SDS011;41247;49.736;8.752;2022-07-29T17:18:21;3.75;;;2.80;;
55368;SDS011;41247;49.736;8.752;2022-07-29T17:22:02;5.85;;;3.20;;
55368;SDS011;41247;49.736;8.752;2022-07-29T17:25:44;5.18;;;2.28;;
55368;SDS011;41247;49.736;8.752;2022-07-29T17:29:24;5.55;;;3.00;;
55368;SDS011;41247;49.736;8.752;2022-07-29T17:33:05;6.28;;;2.90;;
55368;SDS011;41247;49.736;8.752;2022-07-29T17:36:46;3.38;;;2.70;;
55368;SDS011;41247;49.736;8.752;2022-07-29T17:40:26;5.38;;;3.03;;
55368;SDS011;41247;49.736;8.752;2022-07-29T17:44:07;3.75;;;2.95;;
55368;SDS011;41247;49.736;8.752;2022-07-29T17:47:47;4.43;;;3.10;;
55368;SDS011;41247;49.736;8.752;2022-07-29T17:51:28;3.70;;;3.00;;
55368;SDS011;41247;49.736;8.752;2022-07-29T17:55:09;4.53;;;3.05;;
55368;SDS011;41247;49.736;8.752;2022-07-29T17:58:49;4.40;;;3.47;;
55368;SDS011;41247;49.736;8.752;2022-07-29T18:02:30;5.13;;;3.35;;
55368;SDS011;41247;49.736;8.752;2022-07-29T18:06:11;5.22;;;3.20;;
55368;SDS011;41247;49.736;8.752;2022-07-29T18:09:51;4.35;;;3.28;;
55368;SDS011;41247;49.736;8.752;2022-07-29T18:13:32;4.05;;;3.20;;
55368;SDS011;41247;49.736;8.752;2022-07-29T18:17:13;7.47;;;3.30;;
55368;SDS011;41247;49.736;8.752;2022-07-29T18:20:53;4.65;;;3.50;;
55368;SDS011;41247;49.736;8.752;2022-07-29T18:24:34;4.90;;;3.03;;
55368;SDS011;41247;49.736;8.752;2022-07-29T18:28:15;4.95;;;3.10;;
55368;SDS011;41247;49.736;8.752;2022-07-29T18:31:55;5.82;;;3.30;;
55368;SDS011;41247;49.736;8.752;2022-07-29T18:35:36;5.15;;;3.33;;
55368;SDS011;41247;49.736;8.752;2022-07-29T18:39:17;5.82;;;3.25;;
55368;SDS011;41247;49.736;8.752;2022-07-29T18:42:57;5.82;;;3.60;;
55368;SDS011;41247;49.736;8.752;2022-07-29T18:46:38;4.20;;;3.40;;
55368;SDS011;41247;49.736;8.752;2022-07-29T18:50:18;4.25;;;3.55;;
55368;SDS011;41247;49.736;8.752;2022-07-29T18:53:59;3.40;;;2.97;;
55368;SDS011;41247;49.736;8.752;2022-07-29T18:57:40;4.80;;;3.47;;
55368;SDS011;41247;49.736;8.752;2022-07-29T19:01:20;5.20;;;3.50;;
55368;SDS011;41247;49.736;8.752;2022-07-29T19:05:01;5.88;;;3.78;;
55368;SDS011;41247;49.736;8.752;2022-07-29T19:08:41;4.25;;;3.30;;
55368;SDS011;41247;49.736;8.752;2022-07-29T19:12:22;4.60;;;3.50;;
55368;SDS011;41247;49.736;8.752;2022-07-29T19:16:03;9.27;;;3.60;;
55368;SDS011;41247;49.736;8.752;2022-07-29T19:19:45;8.27;;;4.25;;
55368;SDS011;41247;49.736;8.752;2022-07-29T19:23:25;4.13;;;3.72;;
55368;SDS011;41247;49.736;8.752;2022-07-29T19:27:06;5.97;;;4.57;;
55368;SDS011;41247;49.736;8.752;2022-07-29T19:30:46;5.88;;;4.43;;
55368;SDS011;41247;49.736;8.752;2022-07-29T19:34:28;4.68;;;4.20;;
55368;SDS011;41247;49.736;8.752;2022-07-29T19:38:08;5.07;;;4.57;;
55368;SDS011;41247;49.736;8.752;2022-07-29T19:41:49;6.75;;;4.88;;
55368;SDS011;41247;49.736;8.752;2022-07-29T19:45:30;8.75;;;4.60;;
55368;SDS011;41247;49.736;8.752;2022-07-29T19:49:11;11.88;;;4.97;;
55368;SDS011;41247;49.736;8.752;2022-07-29T19:52:52;11.75;;;4.70;;
55368;SDS011;41247;49.736;8.752;2022-07-29T19:56:32;5.35;;;4.45;;
55368;SDS011;41247;49.736;8.752;2022-07-29T20:00:14;5.55;;;4.72;;
55368;SDS011;41247;49.736;8.752;2022-07-29T20:03:55;5.97;;;4.60;;
55368;SDS011;41247;49.736;8.752;2022-07-29T20:07:36;5.47;;;4.80;;
55368;SDS011;41247;49.736;8.752;2022-07-29T20:11:18;7.40;;;5.40;;
55368;SDS011;41247;49.736;8.752;2022-07-29T20:14:59;8.90;;;5.00;;
55368;SDS011;41247;49.736;8.752;2022-07-29T20:18:40;6.38;;;4.70;;
55368;SDS011;41247;49.736;8.752;2022-07-29T20:22:20;7.15;;;4.60;;
55368;SDS011;41247;49.736;8.752;2022-07-29T20:26:01;7.68;;;4.80;;
55368;SDS011;41247;49.736;8.752;2022-07-29T20:29:41;7.00;;;4.95;;
55368;SDS011;41247;49.736;8.752;2022-07-29T20:33:22;5.65;;;5.07;;
55368;SDS011;41247;49.736;8.752;2022-07-29T20:37:03;5.65;;;4.97;;
55368;SDS011;41247;49.736;8.752;2022-07-29T20:40:43;5.55;;;4.70;;
55368;SDS011;41247;49.736;8.752;2022-07-29T20:44:24;6.57;;;4.90;;
55368;SDS011;41247;49.736;8.752;2022-07-29T20:48:05;5.70;;;5.07;;
55368;SDS011;41247;49.736;8.752;2022-07-29T20:51:45;6.25;;;4.80;;
55368;SDS011;41247;49.736;8.752;2022-07-29T20:55:26;6.03;;;4.88;;
55368;SDS011;41247;49.736;8.752;2022-07-29T20:59:07;4.55;;;4.15;;
55368;SDS011;41247;49.736;8.752;2022-07-29T21:02:47;7.55;;;4.90;;
55368;SDS011;41247;49.736;8.752;2022-07-29T21:06:28;5.85;;;4.70;;
55368;SDS011;41247;49.736;8.752;2022-07-29T21:10:09;10.88;;;5.57;;
55368;SDS011;41247;49.736;8.752;2022-07-29T21:13:50;7.05;;;5.60;;
55368;SDS011;41247;49.736;8.752;2022-07-29T21:17:32;8.50;;;5.32;;
55368;SDS011;41247;49.736;8.752;2022-07-29T21:21:14;6.07;;;4.68;;
55368;SDS011;41247;49.736;8.752;2022-07-29T21:24:55;5.60;;;4.20;;
55368;SDS011;41247;49.736;8.752;2022-07-29T21:28:36;5.40;;;4.90;;
55368;SDS011;41247;49.736;8.752;2022-07-29T21:32:16;5.22;;;4.57;;
55368;SDS011;41247;49.736;8.752;2022-07-29T21:35:57;7.00;;;5.50;;
55368;SDS011;41247;49.736;8.752;2022-07-29T21:39:39;6.80;;;5.50;;
55368;SDS011;41247;49.736;8.752;2022-07-29T21:43:19;7.97;;;6.35;;
55368;SDS011;41247;49.736;8.752;2022-07-29T21:47:00;8.38;;;5.60;;
55368;SDS011;41247;49.736;8.752;2022-07-29T21:50:41;6.93;;;6.25;;
55368;SDS011;41247;49.736;8.752;2022-07-29T21:54:22;7.00;;;5.80;;
55368;SDS011;41247;49.736;8.752;2022-07-29T21:58:02;10.60;;;6.40;;
55368;SDS011;41247;49.736;8.752;2022-07-29T22:01:43;9.32;;;7.75;;
55368;SDS011;41247;49.736;8.752;2022-07-29T22:05:24;9.38;;;8.18;;
55368;SDS011;41247;49.736;8.752;2022-07-29T22:09:05;10.70;;;8.50;;
55368;SDS011;41247;49.736;8.752;2022-07-29T22:12:48;10.35;;;8.48;;
55368;SDS011;41247;49.736;8.752;2022-07-29T22:16:30;11.52;;;9.10;;
55368;SDS011;41247;49.736;8.752;2022-07-29T22:20:11;9.55;;;7.88;;
55368;SDS011;41247;49.736;8.752;2022-07-29T22:23:51;10.20;;;7.28;;
55368;SDS011;41247;49.736;8.752;2022-07-29T22:27:32;8.45;;;6.88;;
55368;SDS011;41247;49.736;8.752;2022-07-29T22:31:13;8.32;;;7.28;;
55368;SDS011;41247;49.736;8.752;2022-07-29T22:34:53;8.05;;;7.25;;
55368;SDS011;41247;49.736;8.752;2022-07-29T22:38:34;8.88;;;6.93;;
55368;SDS011;41247;49.736;8.752;2022-07-29T22:42:15;11.77;;;8.35;;
55368;SDS011;41247;49.736;8.752;2022-07-29T22:45:56;12.05;;;8.65;;
55368;SDS011;41247;49.736;8.752;2022-07-29T22:49:36;11.60;;;8.40;;
55368;SDS011;41247;49.736;8.752;2022-07-29T22:53:17;9.23;;;7.15;;
55368;SDS011;41247;49.736;8.752;2022-07-29T22:56:57;8.63;;;7.82;;
55368;SDS011;41247;49.736;8.752;2022-07-29T23:00:38;8.98;;;8.07;;
55368;SDS011;41247;49.736;8.752;2022-07-29T23:04:19;7.75;;;6.38;;